createdAt,value
2023-03-03T00:01:27.413Z,37.30
2023-03-03T00:03:55.320Z,38.33
2023-03-03T00:06:24.420Z,49.73
2023-03-03T00:08:52.302Z,37.10
2023-03-03T00:11:20.026Z,41.40
2023-03-03T00:13:51.611Z,39.73
2023-03-03T00:16:25.461Z,45.00
2023-03-03T00:18:54.036Z,45.23
2023-03-03T00:21:29.022Z,42.33
2023-03-03T00:24:02.833Z,37.20
2023-03-03T00:26:36.513Z,52.43
2023-03-03T00:29:25.377Z,46.63
2023-03-03T00:31:52.919Z,50.47
2023-03-03T00:34:26.657Z,42.83
2023-03-03T00:36:56.021Z,43.03
2023-03-03T00:39:30.480Z,39.47
2023-03-03T00:42:00.423Z,40.13
2023-03-03T00:44:41.271Z,48.73
2023-03-03T00:47:30.717Z,69.57
2023-03-03T00:50:28.569Z,32.37
2023-03-03T00:53:03.364Z,32.87
2023-03-03T00:55:32.014Z,28.93
2023-03-03T00:57:59.706Z,35.40
2023-03-03T01:00:29.176Z,45.33
2023-03-03T01:02:56.996Z,44.07
2023-03-03T01:05:24.546Z,37.13
2023-03-03T01:07:52.029Z,50.00
2023-03-03T01:10:19.673Z,44.57
2023-03-03T01:12:47.302Z,53.97
2023-03-03T01:15:16.011Z,49.73
2023-03-03T01:17:44.860Z,59.57
2023-03-03T01:20:14.989Z,57.40
2023-03-03T01:22:42.521Z,64.77
2023-03-03T01:25:10.938Z,54.43
2023-03-03T01:27:38.443Z,59.20
2023-03-03T01:30:07.239Z,57.23
2023-03-03T01:32:34.758Z,62.60
2023-03-03T01:35:03.586Z,61.50
2023-03-03T01:37:31.128Z,50.37
2023-03-03T01:39:58.651Z,45.47
2023-03-03T01:42:29.134Z,50.50
2023-03-03T01:45:22.803Z,38.57
2023-03-03T01:47:54.753Z,56.97
2023-03-03T01:50:32.728Z,56.53
2023-03-03T01:53:03.303Z,41.00
2023-03-03T01:55:35.417Z,32.27
2023-03-03T01:58:08.897Z,32.17
2023-03-03T02:00:39.038Z,38.50
2023-03-03T02:03:06.727Z,27.37
2023-03-03T02:05:36.896Z,43.30
2023-03-03T02:08:05.231Z,39.30
2023-03-03T02:10:33.020Z,36.37
2023-03-03T02:13:00.719Z,29.07
2023-03-03T02:15:32.154Z,32.43
2023-03-03T02:18:04.162Z,41.03
2023-03-03T02:20:45.205Z,31.70
2023-03-03T02:23:18.846Z,42.20
2023-03-03T02:25:54.149Z,48.97
2023-03-03T02:28:24.523Z,62.57
2023-03-03T02:30:55.437Z,54.57
2023-03-03T02:33:23.155Z,67.43
2023-03-03T02:35:51.128Z,68.30
2023-03-03T02:38:24.105Z,61.00
2023-03-03T02:41:01.430Z,66.80
2023-03-03T02:43:34.864Z,55.17
2023-03-03T02:46:02.413Z,54.50
2023-03-03T02:48:29.916Z,50.23
2023-03-03T02:50:57.394Z,50.57
2023-03-03T02:53:24.872Z,43.73
2023-03-03T02:55:52.342Z,47.80
2023-03-03T02:58:19.913Z,34.57
2023-03-03T03:00:48.820Z,31.33
2023-03-03T03:03:16.326Z,37.53
2023-03-03T03:05:43.790Z,41.00
2023-03-03T03:08:11.283Z,40.53
2023-03-03T03:10:38.929Z,37.33
2023-03-03T03:13:06.419Z,29.17
2023-03-03T03:15:33.893Z,34.17
2023-03-03T03:18:02.727Z,36.60
2023-03-03T03:20:30.481Z,32.30
2023-03-03T03:22:57.985Z,39.33
2023-03-03T03:25:25.579Z,42.00
2023-03-03T03:27:53.057Z,30.23
2023-03-03T03:30:22.453Z,33.87
2023-03-03T03:32:49.949Z,37.00
2023-03-03T03:35:18.993Z,27.70
2023-03-03T03:37:46.510Z,36.00
2023-03-03T03:40:14.364Z,25.57
2023-03-03T03:42:41.901Z,28.80
2023-03-03T03:45:10.199Z,23.50
2023-03-03T03:47:38.100Z,36.77
2023-03-03T03:50:06.264Z,27.53
2023-03-03T03:52:35.047Z,26.77
2023-03-03T03:55:02.562Z,27.60
2023-03-03T03:57:30.033Z,28.93
2023-03-03T03:59:57.733Z,30.07
2023-03-03T04:02:25.341Z,32.83
2023-03-03T04:04:52.902Z,27.70
2023-03-03T04:07:20.356Z,25.13
2023-03-03T04:09:49.242Z,23.27
2023-03-03T04:12:16.709Z,28.97
2023-03-03T04:14:44.208Z,35.70
2023-03-03T04:17:17.123Z,31.87
2023-03-03T04:19:44.589Z,32.13
2023-03-03T04:22:12.594Z,25.90
2023-03-03T04:24:40.187Z,24.80
2023-03-03T04:27:09.602Z,35.33
2023-03-03T04:29:37.305Z,31.73
2023-03-03T04:32:05.014Z,46.63
2023-03-03T04:34:32.523Z,52.90
2023-03-03T04:37:00.019Z,36.80
2023-03-03T04:39:27.558Z,27.77
2023-03-03T04:41:55.083Z,26.10
2023-03-03T04:44:23.869Z,27.80
2023-03-03T04:46:51.359Z,28.03
2023-03-03T04:49:18.825Z,30.67
2023-03-03T04:51:46.283Z,30.23
2023-03-03T04:54:13.769Z,29.67
2023-03-03T04:56:41.321Z,26.83
2023-03-03T04:59:08.789Z,39.50
2023-03-03T05:01:37.790Z,28.90
2023-03-03T05:04:05.323Z,31.60
2023-03-03T05:06:32.806Z,39.97
2023-03-03T05:09:00.332Z,40.27
2023-03-03T05:11:27.830Z,38.20
2023-03-03T05:13:55.305Z,29.20
2023-03-03T05:16:22.838Z,29.97
2023-03-03T05:18:51.641Z,34.43
2023-03-03T05:21:19.110Z,41.80
2023-03-03T05:23:46.558Z,44.17
2023-03-03T05:26:14.177Z,31.90
2023-03-03T05:28:41.626Z,35.07
2023-03-03T05:31:09.150Z,38.17
2023-03-03T05:33:36.712Z,43.33
2023-03-03T05:36:05.872Z,34.87
2023-03-03T05:38:33.331Z,46.33
2023-03-03T05:41:00.809Z,31.90
2023-03-03T05:43:29.150Z,46.47
2023-03-03T05:45:57.594Z,35.57
2023-03-03T05:48:25.335Z,41.33
2023-03-03T05:50:52.869Z,40.70
2023-03-03T05:53:21.662Z,51.33
2023-03-03T05:55:49.386Z,57.73
2023-03-03T05:58:16.888Z,51.87
2023-03-03T06:00:44.342Z,50.40
2023-03-03T06:03:11.858Z,54.97
2023-03-03T06:05:39.390Z,52.77
2023-03-03T06:08:06.953Z,34.47
2023-03-03T06:10:35.778Z,34.70
2023-03-03T06:13:03.345Z,39.43
2023-03-03T06:15:31.043Z,38.20
2023-03-03T06:17:58.562Z,43.77
2023-03-03T06:20:26.132Z,29.93
2023-03-03T06:22:53.908Z,33.33
2023-03-03T06:25:21.516Z,34.67
2023-03-03T06:27:50.411Z,31.10
2023-03-03T06:30:18.915Z,25.80
2023-03-03T06:32:46.731Z,27.40
2023-03-03T06:35:14.438Z,24.80
2023-03-03T06:37:41.914Z,23.40
2023-03-03T06:40:10.710Z,26.53
2023-03-03T06:42:38.290Z,33.67
2023-03-03T06:45:07.981Z,25.30
2023-03-03T06:47:35.471Z,27.67
2023-03-03T06:50:02.958Z,28.43
2023-03-03T06:52:30.408Z,25.37
2023-03-03T06:55:01.810Z,24.97
2023-03-03T06:57:31.646Z,21.73
2023-03-03T07:00:04.206Z,29.37
2023-03-03T07:02:33.022Z,29.80
2023-03-03T07:05:00.500Z,36.23
2023-03-03T07:07:28.082Z,28.10
2023-03-03T07:09:57.450Z,53.20
2023-03-03T07:12:27.732Z,63.53
2023-03-03T07:15:02.402Z,57.93
2023-03-03T07:17:32.764Z,51.73
2023-03-03T07:20:00.206Z,45.47
2023-03-03T07:22:30.162Z,30.70
2023-03-03T07:25:01.728Z,25.57
2023-03-03T07:27:30.879Z,28.00
2023-03-03T07:30:18.966Z,21.33
2023-03-03T07:32:48.482Z,26.00
2023-03-03T07:35:30.529Z,19.50
2023-03-03T07:37:58.400Z,32.50
2023-03-03T07:40:36.516Z,24.17
2023-03-03T07:43:28.394Z,21.40
2023-03-03T07:46:02.769Z,19.53
2023-03-03T07:48:36.974Z,21.53
2023-03-03T07:51:12.496Z,19.97
2023-03-03T07:53:40.341Z,16.67
2023-03-03T07:56:17.958Z,18.83
2023-03-03T07:58:45.439Z,17.97
2023-03-03T08:01:39.695Z,15.87
2023-03-03T08:04:19.306Z,19.67
2023-03-03T08:06:49.493Z,14.83
2023-03-03T08:09:39.518Z,14.07
2023-03-03T08:12:45.083Z,20.90
2023-03-03T08:15:23.141Z,22.60
2023-03-03T08:17:52.181Z,19.90
2023-03-03T08:20:45.070Z,23.03
2023-03-03T08:23:14.003Z,22.77
2023-03-03T08:25:42.677Z,22.43
2023-03-03T08:28:10.456Z,18.43
2023-03-03T08:30:38.034Z,16.43
2023-03-03T08:33:05.556Z,18.67
2023-03-03T08:35:33.111Z,19.07
2023-03-03T08:38:02.110Z,19.83
2023-03-03T08:40:29.805Z,20.93
2023-03-03T08:42:58.093Z,17.40
2023-03-03T08:45:26.287Z,20.27
2023-03-03T08:47:54.394Z,19.53
2023-03-03T08:50:22.136Z,17.23
2023-03-03T08:52:50.134Z,17.97
2023-03-03T08:55:19.506Z,19.67
2023-03-03T08:57:47.028Z,19.90
2023-03-03T09:00:18.021Z,20.50
2023-03-03T09:02:45.521Z,18.37
2023-03-03T09:05:13.959Z,18.60
2023-03-03T09:07:42.414Z,15.13
2023-03-03T09:10:13.409Z,14.07
2023-03-03T09:12:43.611Z,18.70
2023-03-03T09:15:20.163Z,18.17
2023-03-03T09:17:48.668Z,17.07
2023-03-03T09:20:37.324Z,19.57
2023-03-03T09:23:31.156Z,19.60
2023-03-03T09:26:00.201Z,16.53
2023-03-03T09:28:31.559Z,16.37
2023-03-03T09:31:07.371Z,21.73
2023-03-03T09:33:43.376Z,20.73
2023-03-03T09:36:23.808Z,15.57
2023-03-03T09:38:51.526Z,19.53
2023-03-03T09:41:54.902Z,21.23
2023-03-03T09:44:35.433Z,20.67
2023-03-03T09:47:16.778Z,18.67
2023-03-03T09:49:58.127Z,19.67
2023-03-03T09:52:38.501Z,20.40
2023-03-03T09:55:19.064Z,17.55
2023-03-03T09:58:10.489Z,18.17
2023-03-03T10:00:49.058Z,20.10
2023-03-03T10:03:53.939Z,20.40
2023-03-03T10:06:27.978Z,19.52
2023-03-03T10:09:09.801Z,21.65
2023-03-03T10:11:46.089Z,20.15
2023-03-03T10:14:37.897Z,22.13
2023-03-03T10:17:26.814Z,20.35
2023-03-03T10:20:05.620Z,21.10
2023-03-03T10:22:40.257Z,21.83
2023-03-03T10:25:32.220Z,19.38
2023-03-03T10:28:25.261Z,17.98
2023-03-03T10:31:10.397Z,19.35
2023-03-03T10:33:46.964Z,17.95
2023-03-03T10:36:30.821Z,21.85
2023-03-03T10:39:12.734Z,19.63
2023-03-03T10:42:01.384Z,22.33
2023-03-03T10:44:41.893Z,21.63
2023-03-03T10:47:29.550Z,22.25
2023-03-03T10:50:07.444Z,24.38
2023-03-03T10:52:45.057Z,23.02
2023-03-03T10:55:27.890Z,20.63
2023-03-03T10:58:09.513Z,19.17
2023-03-03T11:00:43.870Z,20.42
2023-03-03T11:03:33.845Z,24.65
2023-03-03T11:06:06.108Z,19.73
2023-03-03T11:08:42.208Z,22.75
2023-03-03T11:11:19.149Z,22.20
2023-03-03T11:13:52.111Z,19.58
2023-03-03T11:16:34.731Z,19.00
2023-03-03T11:19:13.283Z,23.85
2023-03-03T11:21:51.932Z,19.85
2023-03-03T11:24:32.389Z,24.77
2023-03-03T11:27:16.339Z,21.08
2023-03-03T11:29:58.278Z,19.75
2023-03-03T11:32:38.982Z,19.40
2023-03-03T11:35:21.495Z,23.17
2023-03-03T11:38:02.616Z,26.95
2023-03-03T11:40:37.279Z,18.95
2023-03-03T11:43:11.462Z,20.95
2023-03-03T11:45:43.599Z,20.33
2023-03-03T11:48:19.310Z,21.15
2023-03-03T11:50:56.336Z,22.00
2023-03-03T11:53:36.334Z,18.13
2023-03-03T11:56:16.312Z,19.30
2023-03-03T11:58:47.797Z,23.27
2023-03-03T12:01:23.448Z,21.40
2023-03-03T12:03:56.792Z,18.40
2023-03-03T12:06:31.468Z,18.40
2023-03-03T12:09:18.642Z,19.42
2023-03-03T12:11:54.188Z,19.65
2023-03-03T12:14:34.207Z,17.73
2023-03-03T12:17:07.468Z,20.23
2023-03-03T12:19:43.334Z,21.95
2023-03-03T12:22:22.835Z,21.13
2023-03-03T12:25:23.618Z,19.55
2023-03-03T12:27:57.712Z,18.35
2023-03-03T12:30:46.048Z,18.52
2023-03-03T12:33:23.360Z,19.50
2023-03-03T12:36:02.549Z,18.33
2023-03-03T12:38:39.527Z,23.70
2023-03-03T12:41:16.401Z,16.40
2023-03-03T12:44:00.778Z,17.00
2023-03-03T12:46:39.920Z,19.27
2023-03-03T12:49:07.530Z,22.08
2023-03-03T12:51:43.990Z,18.83
2023-03-03T12:54:23.745Z,18.13
2023-03-03T12:56:56.882Z,22.70
2023-03-03T12:59:37.245Z,19.13
2023-03-03T13:02:30.945Z,17.27
2023-03-03T13:05:09.060Z,16.02
2023-03-03T13:07:43.038Z,17.80
2023-03-03T13:10:21.417Z,19.67
2023-03-03T13:12:55.305Z,19.80
2023-03-03T13:15:32.202Z,19.13
2023-03-03T13:18:20.594Z,18.52
2023-03-03T13:20:52.480Z,22.92
2023-03-03T13:23:32.905Z,18.38
2023-03-03T13:26:08.787Z,18.38
2023-03-03T13:28:41.963Z,18.55
2023-03-03T13:31:16.116Z,16.75
2023-03-03T13:33:52.064Z,18.52
2023-03-03T13:36:20.039Z,17.45
2023-03-03T13:38:50.307Z,20.23
2023-03-03T13:41:24.952Z,21.38
2023-03-03T13:43:58.308Z,18.80
2023-03-03T13:46:35.752Z,17.00
2023-03-03T13:49:16.938Z,15.40
2023-03-03T13:51:51.432Z,16.80
2023-03-03T13:54:37.346Z,17.80
2023-03-03T13:57:15.610Z,16.08
2023-03-03T13:59:53.862Z,15.63
2023-03-03T14:02:42.435Z,19.52
2023-03-03T14:05:17.343Z,18.20
2023-03-03T14:07:53.289Z,16.40
2023-03-03T14:10:25.474Z,17.08
2023-03-03T14:13:03.348Z,17.38
2023-03-03T14:15:36.770Z,16.25
2023-03-03T14:18:20.852Z,14.48
2023-03-03T14:20:50.994Z,16.35
2023-03-03T14:23:24.046Z,13.50
2023-03-03T14:25:55.838Z,15.50
2023-03-03T14:28:24.960Z,12.07
2023-03-03T14:30:56.180Z,14.85
2023-03-03T14:33:29.564Z,15.00
2023-03-03T14:36:12.308Z,16.33
2023-03-03T14:38:47.778Z,16.83
2023-03-03T14:41:39.651Z,16.70
2023-03-03T14:44:26.837Z,15.50
2023-03-03T14:47:20.522Z,19.48
2023-03-03T14:49:48.323Z,15.80
2023-03-03T14:52:25.530Z,17.33
2023-03-03T14:54:54.844Z,21.30
2023-03-03T14:57:30.310Z,15.82
2023-03-03T15:00:06.832Z,16.85
2023-03-03T15:02:42.266Z,15.77
2023-03-03T15:05:18.239Z,12.57
2023-03-03T15:07:46.888Z,13.40
2023-03-03T15:10:27.030Z,11.35
2023-03-03T15:12:54.716Z,12.35
2023-03-03T15:15:23.745Z,14.27
2023-03-03T15:18:01.220Z,11.77
2023-03-03T15:20:38.050Z,16.60
2023-03-03T15:23:19.543Z,15.95
2023-03-03T15:25:54.654Z,13.65
2023-03-03T15:28:33.253Z,15.75
2023-03-03T15:31:06.757Z,14.30
2023-03-03T15:33:44.030Z,14.32
2023-03-03T15:36:21.514Z,17.10
2023-03-03T15:38:59.814Z,17.25
2023-03-03T15:41:38.208Z,26.02
2023-03-03T15:44:17.564Z,19.83
2023-03-03T15:47:14.161Z,21.73
2023-03-03T15:50:03.706Z,19.52
2023-03-03T15:52:41.976Z,18.15
2023-03-03T15:55:27.529Z,15.32
2023-03-03T15:58:12.876Z,19.20
2023-03-03T16:00:55.115Z,16.45
2023-03-03T16:03:27.845Z,19.88
2023-03-03T16:06:02.126Z,16.27
2023-03-03T16:08:41.406Z,18.85
2023-03-03T16:11:13.742Z,15.90
2023-03-03T16:14:01.331Z,18.80
2023-03-03T16:16:40.331Z,17.30
2023-03-03T16:19:18.158Z,17.55
2023-03-03T16:22:03.534Z,16.65
2023-03-03T16:24:42.568Z,17.52
2023-03-03T16:27:20.024Z,16.35
2023-03-03T16:30:08.034Z,16.27
2023-03-03T16:32:41.538Z,19.98
2023-03-03T16:35:22.664Z,17.65
2023-03-03T16:37:59.145Z,16.92
2023-03-03T16:40:30.766Z,21.45
2023-03-03T16:43:11.871Z,22.33
2023-03-03T16:45:41.274Z,25.90
2023-03-03T16:48:22.776Z,17.00
2023-03-03T16:51:05.122Z,18.93
2023-03-03T16:53:49.247Z,20.90
2023-03-03T16:56:22.840Z,19.87
2023-03-03T16:59:04.511Z,32.23
2023-03-03T17:01:41.550Z,25.37
2023-03-03T17:04:15.230Z,29.27
2023-03-03T17:06:50.039Z,23.60
2023-03-03T17:09:39.815Z,19.40
2023-03-03T17:12:26.453Z,17.37
2023-03-03T17:15:10.994Z,14.37
2023-03-03T17:17:45.035Z,20.90
2023-03-03T17:20:30.881Z,18.73
2023-03-03T17:23:16.094Z,26.37
2023-03-03T17:25:52.195Z,27.23
2023-03-03T17:28:33.106Z,26.20
2023-03-03T17:31:10.952Z,23.50
2023-03-03T17:33:53.266Z,31.20
2023-03-03T17:36:33.762Z,21.50
2023-03-03T17:39:13.812Z,17.93
2023-03-03T17:41:50.718Z,16.40
2023-03-03T17:44:25.388Z,20.40
2023-03-03T17:46:56.466Z,22.87
2023-03-03T17:49:42.625Z,19.53
2023-03-03T17:52:24.631Z,27.97
2023-03-03T17:55:32.827Z,14.90
2023-03-03T17:58:18.516Z,19.33
2023-03-03T18:00:59.384Z,42.17
2023-03-03T18:03:38.568Z,31.17
2023-03-03T18:06:36.684Z,37.80
2023-03-03T18:09:18.309Z,45.63
2023-03-03T18:11:57.398Z,47.60
2023-03-03T18:14:52.527Z,63.43
2023-03-03T18:17:35.345Z,67.70
2023-03-03T18:20:30.328Z,89.67
2023-03-03T18:22:57.972Z,48.40
2023-03-03T18:25:27.661Z,46.10
2023-03-03T18:28:21.992Z,36.17
2023-03-03T18:30:56.817Z,31.43
2023-03-03T18:33:43.137Z,25.43
2023-03-03T18:36:16.286Z,32.90
2023-03-03T18:38:47.583Z,28.93
2023-03-03T18:41:26.001Z,31.37
2023-03-03T18:43:57.485Z,22.97
2023-03-03T18:46:55.232Z,26.40
2023-03-03T18:50:08.442Z,42.03
2023-03-03T18:52:36.945Z,48.30
2023-03-03T18:55:24.637Z,48.07
2023-03-03T18:58:33.937Z,45.20
2023-03-03T19:01:12.962Z,40.70
2023-03-03T19:04:16.770Z,37.93
2023-03-03T19:07:18.865Z,39.03
2023-03-03T19:09:52.463Z,33.77
2023-03-03T19:12:40.419Z,20.57
2023-03-03T19:15:29.444Z,14.63
2023-03-03T19:17:59.685Z,12.80
2023-03-03T19:20:39.124Z,11.83
2023-03-03T19:23:12.136Z,11.80
2023-03-03T19:25:39.705Z,14.33
2023-03-03T19:28:33.493Z,11.93
2023-03-03T19:31:04.755Z,12.63
2023-03-03T19:33:43.678Z,11.40
2023-03-03T19:36:48.250Z,10.87
2023-03-03T19:39:34.421Z,11.10
2023-03-03T19:42:12.726Z,10.43
2023-03-03T19:44:54.241Z,12.60
2023-03-03T19:47:34.444Z,13.37
2023-03-03T19:50:16.673Z,12.70
2023-03-03T19:52:50.701Z,13.00
2023-03-03T19:55:35.539Z,16.23
2023-03-03T19:58:18.423Z,11.53
2023-03-03T20:00:48.741Z,15.17
2023-03-03T20:03:45.507Z,15.13
2023-03-03T20:06:25.920Z,11.20
2023-03-03T20:09:02.850Z,13.63
2023-03-03T20:11:55.951Z,13.07
2023-03-03T20:14:36.154Z,13.37
2023-03-03T20:17:19.019Z,16.63
2023-03-03T20:19:53.034Z,13.20
2023-03-03T20:22:29.253Z,14.60
2023-03-03T20:25:10.365Z,27.77
2023-03-03T20:27:48.050Z,27.93
2023-03-03T20:30:30.949Z,34.00
2023-03-03T20:33:17.920Z,21.73
2023-03-03T20:35:58.282Z,19.20
2023-03-03T20:38:32.893Z,12.87
2023-03-03T20:41:13.348Z,13.77
2023-03-03T20:43:55.389Z,11.30
2023-03-03T20:46:28.134Z,14.70
2023-03-03T20:49:10.941Z,13.30
2023-03-03T20:51:45.940Z,10.20
2023-03-03T20:54:24.311Z,10.63
2023-03-03T20:56:57.469Z,9.97
2023-03-03T20:59:32.928Z,11.80
2023-03-03T21:02:08.434Z,11.97
2023-03-03T21:04:36.227Z,11.60
2023-03-03T21:07:05.432Z,15.20
2023-03-03T21:09:35.100Z,13.70
2023-03-03T21:12:12.106Z,23.30
2023-03-03T21:14:39.622Z,29.23
2023-03-03T21:17:26.250Z,41.43
2023-03-03T21:19:53.699Z,49.73
2023-03-03T21:22:21.229Z,49.33
2023-03-03T21:24:50.829Z,55.67
2023-03-03T21:27:31.160Z,52.53
2023-03-03T21:30:07.928Z,40.57
2023-03-03T21:32:38.489Z,25.93
2023-03-03T21:35:08.740Z,13.00
2023-03-03T21:37:49.425Z,12.67
2023-03-03T21:40:20.860Z,20.50
2023-03-03T21:42:50.029Z,29.63
2023-03-03T21:45:20.372Z,22.93
2023-03-03T21:47:48.303Z,34.50
2023-03-03T21:50:16.611Z,31.43
2023-03-03T21:52:44.283Z,49.47
2023-03-03T21:55:11.839Z,58.43
2023-03-03T21:57:39.342Z,44.43
2023-03-03T22:00:11.601Z,38.83
2023-03-03T22:02:39.052Z,49.13
2023-03-03T22:05:07.991Z,34.23
2023-03-03T22:07:35.554Z,50.73
2023-03-03T22:10:03.073Z,43.10
2023-03-03T22:12:30.596Z,39.23
2023-03-03T22:14:58.060Z,50.60
2023-03-03T22:17:27.984Z,25.60
2023-03-03T22:19:55.621Z,20.57
2023-03-03T22:22:24.183Z,24.23
2023-03-03T22:24:51.673Z,31.30
2023-03-03T22:27:19.180Z,46.03
2023-03-03T22:29:46.670Z,63.70
2023-03-03T22:32:14.196Z,68.33
2023-03-03T22:34:43.212Z,19.50
2023-03-03T22:37:10.705Z,16.87
2023-03-03T22:39:38.186Z,16.07
2023-03-03T22:42:05.747Z,16.60
2023-03-03T22:44:33.219Z,16.43
2023-03-03T22:47:00.669Z,17.53
2023-03-03T22:49:28.238Z,15.50
2023-03-03T22:51:58.648Z,19.00
2023-03-03T22:54:26.207Z,18.17
2023-03-03T22:56:53.658Z,25.87
2023-03-03T22:59:21.118Z,32.53
2023-03-03T23:01:48.581Z,41.27
2023-03-03T23:04:16.079Z,22.40
2023-03-03T23:06:44.726Z,19.23
2023-03-03T23:09:13.570Z,18.33
2023-03-03T23:11:41.043Z,17.90
2023-03-03T23:14:08.505Z,15.50
2023-03-03T23:16:35.967Z,15.03
2023-03-03T23:19:03.456Z,13.00
2023-03-03T23:21:30.936Z,13.60
2023-03-03T23:23:58.432Z,12.63
2023-03-03T23:26:27.298Z,14.63
2023-03-03T23:28:54.824Z,12.20
2023-03-03T23:31:22.364Z,12.83
2023-03-03T23:33:49.872Z,9.53
2023-03-03T23:36:17.387Z,11.57
2023-03-03T23:38:44.855Z,11.57
2023-03-03T23:41:12.330Z,11.40
2023-03-03T23:43:41.098Z,14.53
2023-03-03T23:46:08.977Z,13.33
2023-03-03T23:48:36.485Z,13.10
2023-03-03T23:51:04.013Z,11.77
2023-03-03T23:53:31.483Z,12.50
2023-03-03T23:55:58.958Z,12.13
2023-03-03T23:58:26.439Z,12.67
